KTVI/TVI METAR and TAF weather

Enter ICAO airport designator
Station Type Date Time Source
KTVI METAR 2019/10/15 18:35 UTC NOAA

KTVI 151835Z AUTO 08005KT 10SM SCT012 BKN020 OVC090 24/21 A3002 RMK AO2


Station Type Date Time Source
KTVI Decoded METAR 2019/10/15 18:35 UTC NOAA

Thomasville, GA, United States (KTVI) 30-54-06N 083-52-53W
Oct 15, 2019 - 02:35 PM EDT / 2019.10.15 1835 UTC
Wind: from the E (080 degrees) at 6 MPH (5 KT):0
Visibility: 10 mile(s):0
Sky conditions: overcast
Temperature: 75 F (24 C)
Dew Point: 69 F (21 C)
Relative Humidity: 83%
Pressure (altimeter): 30.02 in. Hg (1016 hPa)
ob: KTVI 151835Z AUTO 08005KT 10SM SCT012 BKN020 OVC090 24/21 A3002 RMK AO2
cycle: 18

Station Type Date Time Source
KTVI TAF UTC NOAA

Error!

Example: see airport list